Terminal Aerodrome Forecast
Issued by NWS Sterling, VA

Current Version | Previous Version | Text Only | Print | Product List | Glossary Off
Versions: 1 2 3 4 5 6 7 8 9 10 11 12 13 14 15 16 17 18 19 20 21 22 23 24 25 26 27 28

000
FTUS41 KLWX 221954 AAC
TAFDCA
TAF AMD
KDCA 221954Z 2220/2318 05006KT 5SM -RA OVC008
      TEMPO 2220/2222 1SM RA
     FM230200 06010G18KT 5SM -RA OVC008
     FM230600 07014G25KT 5SM RA BKN008 OVC015
     FM230800 06017G35KT 5SM RA BKN008 OVC015
     FM231700 07013G28KT 5SM RA OVC008=

USA.gov is the U.S. government's official web portal to all federal, state and local government web resources and services.